createdAt,value
2022-10-15T00:00:22.077Z,95547.50
2022-10-15T00:02:50.492Z,95566.13
2022-10-15T00:05:18.516Z,95566.91
2022-10-15T00:07:46.387Z,95568.38
2022-10-15T00:10:14.785Z,95563.63
2022-10-15T00:12:43.068Z,95561.72
2022-10-15T00:15:11.867Z,95552.81
2022-10-15T00:17:41.401Z,95564.72
2022-10-15T00:20:11.653Z,95560.47
2022-10-15T00:22:40.109Z,95528.09
2022-10-15T00:25:09.222Z,95553.47
2022-10-15T00:27:38.187Z,95550.31
2022-10-15T00:30:07.305Z,95547.16
2022-10-15T00:32:35.452Z,95548.75
2022-10-15T00:35:05.180Z,95545.56
2022-10-15T00:37:33.009Z,95540.84
2022-10-15T00:42:33.648Z,95531.94
2022-10-15T00:45:01.909Z,95528.88
2022-10-15T00:47:36.219Z,95535.53
2022-10-15T00:50:09.137Z,95531.38
2022-10-15T00:52:47.081Z,95524.88
2022-10-15T00:55:17.371Z,95523.72
2022-10-15T00:57:47.963Z,95528.13
2022-10-15T01:00:17.118Z,95523.53
2022-10-15T01:02:46.264Z,95521.16
2022-10-15T01:05:17.658Z,95535.00
2022-10-15T01:07:45.535Z,95527.22
2022-10-15T01:10:13.859Z,95530.72
2022-10-15T01:12:58.010Z,95536.44
2022-10-15T01:15:30.483Z,95530.13
2022-10-15T01:18:02.607Z,95530.03
2022-10-15T01:20:51.570Z,95527.19
2022-10-15T01:23:55.044Z,95509.47
2022-10-15T01:27:00.186Z,95533.84
2022-10-15T01:29:47.828Z,95525.28
2022-10-15T01:32:22.496Z,95527.63
2022-10-15T01:34:57.680Z,95534.50
2022-10-15T01:37:30.396Z,95528.00
2022-10-15T01:40:05.321Z,95531.34
2022-10-15T01:42:37.643Z,95533.75
2022-10-15T01:45:11.104Z,95542.16
2022-10-15T01:47:47.487Z,95521.19
2022-10-15T01:50:18.070Z,95525.28
2022-10-15T01:52:46.541Z,95531.78
2022-10-15T01:55:18.111Z,95524.38
2022-10-15T01:57:47.280Z,95529.00
2022-10-15T02:00:15.535Z,95531.25
2022-10-15T02:02:44.819Z,95529.00
2022-10-15T02:05:19.109Z,95525.94
2022-10-15T02:07:54.800Z,95521.00
2022-10-15T02:10:29.012Z,95528.78
2022-10-15T02:13:09.772Z,95531.78
2022-10-15T02:15:45.889Z,95484.84
2022-10-15T02:18:19.843Z,95525.94
2022-10-15T02:20:54.242Z,95525.16
2022-10-15T02:23:25.681Z,95524.38
2022-10-15T02:25:54.524Z,95530.56
2022-10-15T02:28:25.827Z,95530.25
2022-10-15T02:30:54.276Z,95539.44
2022-10-15T02:33:25.404Z,95535.63
2022-10-15T02:35:54.074Z,95502.56
2022-10-15T02:38:26.125Z,95532.59
2022-10-15T02:40:55.032Z,95509.53
2022-10-15T02:43:23.712Z,95533.19
2022-10-15T02:45:51.625Z,95530.47
2022-10-15T02:48:21.810Z,95517.19
2022-10-15T02:50:51.055Z,95532.03
2022-10-15T02:53:18.912Z,95531.59
2022-10-15T02:55:47.094Z,95531.59
2022-10-15T02:58:14.961Z,95532.53
2022-10-15T03:00:42.854Z,95530.28
2022-10-15T03:03:11.676Z,95533.19
2022-10-15T03:05:39.670Z,95530.94
2022-10-15T03:08:08.897Z,95532.97
2022-10-15T03:10:36.898Z,95450.94
2022-10-15T03:13:05.331Z,95531.72
2022-10-15T03:15:33.607Z,95525.06
2022-10-15T03:18:01.622Z,95521.56
2022-10-15T03:20:29.536Z,95522.59
2022-10-15T03:22:57.414Z,95515.78
2022-10-15T03:25:26.657Z,95530.91
2022-10-15T03:27:54.515Z,95533.16
2022-10-15T03:30:22.404Z,95534.25
2022-10-15T03:32:50.338Z,95521.75
2022-10-15T03:35:18.447Z,95525.03
2022-10-15T03:37:46.287Z,95529.53
2022-10-15T03:40:14.788Z,95532.00
2022-10-15T03:42:44.096Z,95533.59
2022-10-15T03:45:12.387Z,95538.53
2022-10-15T03:47:40.248Z,95538.91
2022-10-15T03:50:08.705Z,95541.91
2022-10-15T03:52:37.780Z,95546.66
2022-10-15T03:55:06.794Z,95541.25
2022-10-15T03:57:37.175Z,95542.38
2022-10-15T04:00:09.568Z,95541.59
2022-10-15T04:02:37.438Z,95519.75
2022-10-15T04:05:05.995Z,95544.16
2022-10-15T04:07:33.943Z,95553.84
2022-10-15T04:10:01.790Z,95539.41
2022-10-15T04:12:29.650Z,95548.91
2022-10-15T04:14:57.503Z,95549.81
2022-10-15T04:17:26.784Z,95541.69
2022-10-15T04:19:54.635Z,95545.50
2022-10-15T04:22:22.726Z,95507.09
2022-10-15T04:24:51.177Z,95547.09
2022-10-15T04:27:19.127Z,95548.22
2022-10-15T04:29:48.473Z,95550.91
2022-10-15T04:32:16.995Z,95541.25
2022-10-15T04:34:47.391Z,95545.75
2022-10-15T04:37:15.436Z,95554.16
2022-10-15T04:39:43.263Z,95543.97
2022-10-15T04:42:11.199Z,95549.28
2022-10-15T04:44:39.061Z,95554.22
2022-10-15T04:47:06.911Z,95560.44
2022-10-15T04:49:34.768Z,95561.69
2022-10-15T04:52:04.187Z,95563.41
2022-10-15T04:54:32.105Z,95557.22
2022-10-15T04:57:00.061Z,95556.31
2022-10-15T04:59:27.922Z,95566.94
2022-10-15T05:01:55.865Z,95557.25
2022-10-15T05:04:23.754Z,95559.81
2022-10-15T05:06:51.604Z,95567.13
2022-10-15T05:09:20.947Z,95563.78
2022-10-15T05:11:48.776Z,95564.72
2022-10-15T05:14:16.625Z,95574.84
2022-10-15T05:16:44.674Z,95587.25
2022-10-15T05:19:12.787Z,95580.78
2022-10-15T05:21:41.043Z,95586.53
2022-10-15T05:24:08.984Z,95572.00
2022-10-15T05:26:38.423Z,95583.94
2022-10-15T05:29:06.294Z,95586.44
2022-10-15T05:31:34.766Z,95575.94
2022-10-15T05:34:08.224Z,95589.44
2022-10-15T05:36:36.987Z,95593.06
2022-10-15T05:39:07.138Z,95584.34
2022-10-15T05:41:35.077Z,95591.56
2022-10-15T05:44:04.664Z,95594.97
2022-10-15T05:46:32.582Z,95572.97
2022-10-15T05:49:00.782Z,95606.41
2022-10-15T05:51:29.225Z,95610.16
2022-10-15T05:53:58.448Z,95608.91
2022-10-15T05:56:27.190Z,95599.06
2022-10-15T05:58:55.400Z,95598.50
2022-10-15T06:01:24.879Z,95609.81
2022-10-15T06:03:52.943Z,95609.69
2022-10-15T06:06:22.896Z,95605.06
2022-10-15T06:08:53.342Z,95606.84
2022-10-15T06:11:21.585Z,95550.75
2022-10-15T06:13:49.539Z,95618.63
2022-10-15T06:16:22.539Z,95611.31
2022-10-15T06:18:54.535Z,95625.09
2022-10-15T06:21:22.741Z,95617.09
2022-10-15T06:23:50.624Z,95623.44
2022-10-15T06:26:18.596Z,95637.41
2022-10-15T06:28:46.480Z,95629.19
2022-10-15T06:31:14.440Z,95634.19
2022-10-15T06:33:42.288Z,95631.91
2022-10-15T06:36:13.753Z,95639.38
2022-10-15T06:38:44.142Z,95644.56
2022-10-15T06:41:12.296Z,95641.19
2022-10-15T06:43:40.509Z,95643.63
2022-10-15T06:46:08.398Z,95650.03
2022-10-15T06:48:36.482Z,95605.53
2022-10-15T06:51:05.623Z,95641.84
2022-10-15T06:53:35.180Z,95595.34
2022-10-15T06:56:04.286Z,95641.56
2022-10-15T06:58:32.165Z,95640.97
2022-10-15T07:01:03.473Z,95643.75
2022-10-15T07:03:31.343Z,95537.66
2022-10-15T07:06:03.589Z,95642.50
2022-10-15T07:08:31.521Z,95657.09
2022-10-15T07:11:02.648Z,95649.34
2022-10-15T07:13:30.839Z,95652.31
2022-10-15T07:15:58.704Z,95651.53
2022-10-15T07:18:26.562Z,95654.59
2022-10-15T07:20:54.438Z,95657.88
2022-10-15T07:23:25.522Z,95646.41
2022-10-15T07:25:56.087Z,95643.16
2022-10-15T07:28:25.500Z,95661.09
2022-10-15T07:30:53.720Z,95651.78
2022-10-15T07:33:21.756Z,95651.50
2022-10-15T07:35:49.584Z,95648.97
2022-10-15T07:38:17.984Z,95657.41
2022-10-15T07:40:46.028Z,95658.59
2022-10-15T07:43:14.164Z,95659.31
2022-10-15T07:45:48.757Z,95657.59
2022-10-15T07:48:16.795Z,95655.03
2022-10-15T07:50:44.704Z,95664.69
2022-10-15T07:53:12.671Z,95655.56
2022-10-15T07:55:40.508Z,95668.84
2022-10-15T07:58:08.857Z,95660.28
2022-10-15T08:00:36.774Z,95673.56
2022-10-15T08:03:06.080Z,95643.44
2022-10-15T08:05:35.147Z,95658.25
2022-10-15T08:08:03.450Z,95670.78
2022-10-15T08:10:31.335Z,95647.25
2022-10-15T08:12:59.183Z,95659.31
2022-10-15T08:15:27.074Z,95651.38
2022-10-15T08:17:54.947Z,95656.72
2022-10-15T08:20:24.192Z,95524.31
2022-10-15T08:22:52.045Z,95648.00
2022-10-15T08:25:19.931Z,95651.44
2022-10-15T08:27:47.819Z,95649.81
2022-10-15T08:30:15.944Z,95649.53
2022-10-15T08:32:43.820Z,95658.72
2022-10-15T08:35:11.686Z,95644.03
2022-10-15T08:37:40.919Z,95645.97
2022-10-15T08:40:11.202Z,95637.16
2022-10-15T08:42:42.831Z,95641.25
2022-10-15T08:45:15.173Z,95633.31
2022-10-15T08:47:47.596Z,95639.16
2022-10-15T08:50:27.686Z,95632.88
2022-10-15T08:53:00.132Z,95626.66
2022-10-15T08:55:33.595Z,95639.63
2022-10-15T08:58:08.129Z,95627.59
2022-10-15T09:00:42.191Z,95639.19
2022-10-15T09:03:25.392Z,95632.03
2022-10-15T09:06:02.039Z,95622.34
2022-10-15T09:08:38.133Z,95634.22
2022-10-15T09:11:13.440Z,95581.91
2022-10-15T09:13:44.425Z,95642.28
2022-10-15T09:16:17.552Z,95638.44
2022-10-15T09:18:48.552Z,95631.50
2022-10-15T09:21:17.505Z,95632.22
2022-10-15T09:23:46.991Z,95642.47
2022-10-15T09:26:26.305Z,95644.22
2022-10-15T09:29:04.511Z,95639.41
2022-10-15T09:31:41.193Z,95628.78
2022-10-15T09:34:16.137Z,95633.66
2022-10-15T09:36:50.994Z,95631.66
2022-10-15T09:39:44.751Z,95627.78
2022-10-15T09:42:27.205Z,95626.78
2022-10-15T09:44:58.783Z,95615.38
2022-10-15T09:47:28.886Z,95613.47
2022-10-15T09:49:56.772Z,95617.41
2022-10-15T09:52:36.416Z,95619.38
2022-10-15T09:55:11.871Z,95626.31
2022-10-15T09:57:41.295Z,95614.66
2022-10-15T10:00:11.820Z,95613.72
2022-10-15T10:02:39.766Z,95612.97
2022-10-15T10:05:21.519Z,95634.94
2022-10-15T10:07:49.349Z,95631.91
2022-10-15T10:10:27.904Z,95622.78
2022-10-15T10:12:57.140Z,95620.16
2022-10-15T10:15:34.267Z,95617.03
2022-10-15T10:18:02.395Z,95617.00
2022-10-15T10:20:31.877Z,95606.03
2022-10-15T10:23:01.324Z,95606.84
2022-10-15T10:25:42.475Z,95606.34
2022-10-15T10:28:21.910Z,95600.69
2022-10-15T10:31:03.727Z,95606.50
2022-10-15T10:33:35.928Z,95603.78
2022-10-15T10:36:06.112Z,95598.94
2022-10-15T10:38:36.071Z,95597.38
2022-10-15T10:41:09.801Z,95603.88
2022-10-15T10:43:39.600Z,95588.94
2022-10-15T10:46:18.154Z,95578.59
2022-10-15T10:48:47.711Z,95594.63
2022-10-15T10:51:19.408Z,95600.09
2022-10-15T10:53:54.520Z,95586.03
2022-10-15T10:56:28.862Z,95605.97
2022-10-15T10:59:00.169Z,95602.06
2022-10-15T11:01:29.270Z,95603.22
2022-10-15T11:03:57.541Z,95600.25
2022-10-15T11:06:57.804Z,95592.09
2022-10-15T11:09:47.931Z,95602.88
2022-10-15T11:12:36.413Z,95595.88
2022-10-15T11:15:18.956Z,95587.13
2022-10-15T11:17:53.264Z,95594.94
2022-10-15T11:20:39.023Z,95591.06
2022-10-15T11:23:29.716Z,95579.75
2022-10-15T11:26:05.913Z,95596.09
2022-10-15T11:28:51.326Z,95589.00
2022-10-15T11:31:27.720Z,95547.34
2022-10-15T11:34:17.260Z,95585.47
2022-10-15T11:36:56.315Z,95580.25
2022-10-15T11:39:53.608Z,95578.91
2022-10-15T11:42:26.821Z,95589.28
2022-10-15T11:45:06.772Z,95581.56
2022-10-15T11:47:48.585Z,95586.28
2022-10-15T11:50:27.705Z,95571.88
2022-10-15T11:53:10.404Z,95572.16
2022-10-15T11:55:42.344Z,95575.19
2022-10-15T11:58:16.389Z,95575.47
2022-10-15T12:00:51.286Z,95574.78
2022-10-15T12:03:24.069Z,95513.44
2022-10-15T12:05:55.682Z,95587.88
2022-10-15T12:08:27.763Z,95589.72
2022-10-15T12:11:05.775Z,95595.31
2022-10-15T12:13:41.429Z,95599.03
2022-10-15T12:16:20.840Z,95589.59
2022-10-15T12:18:56.466Z,95599.91
2022-10-15T12:21:39.552Z,95595.19
2022-10-15T12:24:47.705Z,95586.72
2022-10-15T12:27:24.038Z,95568.72
2022-10-15T12:29:54.160Z,95594.47
2022-10-15T12:32:26.456Z,95592.38
2022-10-15T12:34:58.340Z,95588.91
2022-10-15T12:37:29.143Z,95578.81
2022-10-15T12:39:59.833Z,95589.47
2022-10-15T12:42:31.806Z,95573.97
2022-10-15T12:45:02.761Z,95558.13
2022-10-15T12:47:50.465Z,95581.44
2022-10-15T12:50:20.625Z,95567.94
2022-10-15T12:52:57.860Z,95584.06
2022-10-15T12:55:29.807Z,95575.41
2022-10-15T12:58:00.578Z,95578.16
2022-10-15T13:00:32.231Z,95517.94
2022-10-15T13:03:12.229Z,95575.25
2022-10-15T13:05:40.924Z,95532.06
2022-10-15T13:08:16.120Z,95572.44
2022-10-15T13:10:50.985Z,95586.56
2022-10-15T13:13:22.301Z,95414.09
2022-10-15T13:15:58.793Z,95548.66
2022-10-15T13:18:31.445Z,95580.63
2022-10-15T13:20:59.970Z,95572.78
2022-10-15T13:23:30.458Z,95562.84
2022-10-15T13:26:19.876Z,95551.81
2022-10-15T13:28:48.988Z,95552.84
2022-10-15T13:31:23.577Z,95569.88
2022-10-15T13:34:00.483Z,95565.88
2022-10-15T13:36:31.944Z,95560.88
2022-10-15T13:39:03.716Z,95567.41
2022-10-15T13:41:34.880Z,95573.66
2022-10-15T13:44:03.183Z,95450.00
2022-10-15T13:46:33.574Z,95573.50
2022-10-15T13:49:10.176Z,95432.59
2022-10-15T13:51:41.494Z,95549.25
2022-10-15T13:54:12.884Z,95572.16
2022-10-15T13:56:47.894Z,95563.84
2022-10-15T13:59:20.288Z,95539.19
2022-10-15T14:01:50.796Z,95571.75
2022-10-15T14:04:21.230Z,95571.53
2022-10-15T14:09:35.917Z,95564.44
2022-10-15T14:12:06.901Z,95573.84
2022-10-15T14:14:36.695Z,95545.88
2022-10-15T14:17:06.844Z,95570.94
2022-10-15T14:19:38.285Z,95545.94
2022-10-15T14:22:07.060Z,95545.78
2022-10-15T14:24:36.798Z,95563.09
2022-10-15T14:27:07.407Z,95556.53
2022-10-15T14:29:43.954Z,95552.25
2022-10-15T14:32:24.356Z,95560.31
2022-10-15T14:34:55.451Z,95563.72
2022-10-15T14:37:44.278Z,95554.56
2022-10-15T14:40:30.151Z,95560.91
2022-10-15T14:43:06.590Z,95556.78
2022-10-15T14:45:41.951Z,95546.03
2022-10-15T14:48:12.378Z,95523.19
2022-10-15T14:50:44.904Z,95556.84
2022-10-15T14:53:19.533Z,95565.50
2022-10-15T14:55:52.354Z,95577.97
2022-10-15T14:58:22.515Z,95568.34
2022-10-15T15:00:57.172Z,95571.88
2022-10-15T15:03:30.816Z,95574.53
2022-10-15T15:06:00.096Z,95445.09
2022-10-15T15:08:28.332Z,95585.22
2022-10-15T15:10:58.861Z,95573.72
2022-10-15T15:13:28.793Z,95591.22
2022-10-15T15:15:56.733Z,95597.34
2022-10-15T15:18:25.091Z,95591.69
2022-10-15T15:20:52.980Z,95601.31
2022-10-15T15:23:25.040Z,95595.78
2022-10-15T15:25:54.157Z,95603.88
2022-10-15T15:28:24.322Z,95607.78
2022-10-15T15:30:58.034Z,95611.41
2022-10-15T15:33:26.517Z,95611.91
2022-10-15T15:35:56.551Z,95580.13
2022-10-15T15:38:30.835Z,95616.25
2022-10-15T15:41:03.384Z,95554.53
2022-10-15T15:43:31.734Z,95626.13
2022-10-15T15:45:59.587Z,95629.78
2022-10-15T15:48:27.445Z,95630.41
2022-10-15T15:50:56.889Z,95642.88
2022-10-15T15:53:26.120Z,95635.78
2022-10-15T15:55:54.019Z,95640.00
2022-10-15T15:58:21.882Z,95610.28
2022-10-15T16:00:49.747Z,95643.06
2022-10-15T16:03:17.632Z,95645.97
2022-10-15T16:05:45.804Z,95657.19
2022-10-15T16:08:14.353Z,95664.25
2022-10-15T16:10:44.788Z,95660.72
2022-10-15T16:13:12.641Z,95666.75
2022-10-15T16:15:40.480Z,95680.16
2022-10-15T16:18:08.518Z,95677.06
2022-10-15T16:20:39.525Z,95697.22
2022-10-15T16:23:07.529Z,95679.59
2022-10-15T16:25:35.449Z,95682.41
2022-10-15T16:28:04.761Z,95701.53
2022-10-15T16:30:32.684Z,95701.97
2022-10-15T16:33:00.651Z,95706.19
2022-10-15T16:35:28.576Z,95698.41
2022-10-15T16:37:56.539Z,95702.78
2022-10-15T16:40:24.503Z,95708.13
2022-10-15T16:42:52.367Z,95715.34
2022-10-15T16:45:21.608Z,95712.69
2022-10-15T16:47:49.936Z,95726.34
2022-10-15T16:50:18.061Z,95722.31
2022-10-15T16:52:46.064Z,95730.78
2022-10-15T16:55:13.935Z,95742.09
2022-10-15T16:57:42.245Z,95734.19
2022-10-15T17:00:11.424Z,95735.53
2022-10-15T17:02:40.793Z,95734.44
2022-10-15T17:05:09.655Z,95731.81
2022-10-15T17:07:37.560Z,95754.75
2022-10-15T17:10:08.561Z,95747.41
2022-10-15T17:12:38.963Z,95753.28
2022-10-15T17:15:08.182Z,95749.09
2022-10-15T17:17:37.237Z,95740.88
2022-10-15T17:20:09.154Z,95752.72
2022-10-15T17:22:37.602Z,95707.66
2022-10-15T17:25:06.183Z,95754.06
2022-10-15T17:27:35.727Z,95748.66
2022-10-15T17:30:03.681Z,95754.97
2022-10-15T17:32:31.537Z,95749.53
2022-10-15T17:35:03.796Z,95745.16
2022-10-15T17:40:07.447Z,95750.25
2022-10-15T17:42:36.685Z,95752.72
2022-10-15T17:45:05.220Z,95757.34
2022-10-15T17:47:33.093Z,95759.94
2022-10-15T17:50:00.937Z,95759.72
2022-10-15T17:52:28.792Z,95753.63
2022-10-15T17:54:58.023Z,95762.19
2022-10-15T17:57:26.171Z,95761.97
2022-10-15T17:59:54.309Z,95757.69
2022-10-15T18:02:22.208Z,95744.22
2022-10-15T18:04:50.115Z,95752.03
2022-10-15T18:07:19.859Z,95754.84
2022-10-15T18:09:47.753Z,95753.94
2022-10-15T18:12:17.066Z,95747.28
2022-10-15T18:14:44.907Z,95755.84
2022-10-15T18:17:13.050Z,95753.34
2022-10-15T18:19:41.031Z,95762.63
2022-10-15T18:22:08.871Z,95771.72
2022-10-15T18:24:36.754Z,95782.47
2022-10-15T18:27:04.815Z,95782.28
2022-10-15T18:29:35.981Z,95739.09
2022-10-15T18:32:04.037Z,95727.47
2022-10-15T18:34:33.308Z,95788.00
2022-10-15T18:37:01.229Z,95789.69
2022-10-15T18:39:29.097Z,95787.53
2022-10-15T18:41:56.966Z,95782.09
2022-10-15T18:44:25.443Z,95778.28
2022-10-15T18:46:54.804Z,95776.97
2022-10-15T18:49:22.936Z,95769.59
2022-10-15T18:51:52.882Z,95775.97
2022-10-15T18:54:21.487Z,95778.72
2022-10-15T18:56:49.695Z,95783.31
2022-10-15T18:59:17.593Z,95780.50
2022-10-15T19:01:45.656Z,95781.22
2022-10-15T19:04:17.485Z,95788.22
2022-10-15T19:06:47.521Z,95797.44
2022-10-15T19:09:18.823Z,95790.75
2022-10-15T19:11:49.481Z,95803.13
2022-10-15T19:14:18.094Z,95804.25
2022-10-15T19:16:46.780Z,95807.16
2022-10-15T19:19:18.291Z,95812.13
2022-10-15T19:21:47.524Z,95813.69
2022-10-15T19:24:16.868Z,95807.16
2022-10-15T19:26:44.873Z,95815.28
2022-10-15T19:29:13.060Z,95820.00
2022-10-15T19:31:42.635Z,95815.72
2022-10-15T19:34:10.988Z,95814.34
2022-10-15T19:36:43.360Z,95799.97
2022-10-15T19:39:14.667Z,95809.53
2022-10-15T19:41:44.151Z,95805.66
2022-10-15T19:44:14.006Z,95820.50
2022-10-15T19:46:42.039Z,95824.19
2022-10-15T19:49:12.374Z,95828.97
2022-10-15T19:51:41.769Z,95825.66
2022-10-15T19:54:10.171Z,95822.50
2022-10-15T19:56:38.062Z,95828.34
2022-10-15T19:59:07.356Z,95825.97
2022-10-15T20:01:35.647Z,95830.41
2022-10-15T20:04:06.459Z,95834.41
2022-10-15T20:06:36.131Z,95832.34
2022-10-15T20:09:05.973Z,95833.94
2022-10-15T20:11:34.191Z,95827.75
2022-10-15T20:14:02.685Z,95831.59
2022-10-15T20:16:33.190Z,95830.91
2022-10-15T20:19:02.734Z,95828.38
2022-10-15T20:21:30.818Z,95823.59
2022-10-15T20:23:58.940Z,95795.03
2022-10-15T20:26:28.207Z,95826.47
2022-10-15T20:28:56.120Z,95705.25
2022-10-15T20:31:28.545Z,95826.81
2022-10-15T20:33:56.443Z,95823.78
2022-10-15T20:36:27.340Z,95832.69
2022-10-15T20:38:57.400Z,95827.63
2022-10-15T20:41:25.813Z,95839.19
2022-10-15T20:43:57.199Z,95846.16
2022-10-15T20:46:28.840Z,95818.88
2022-10-15T20:49:02.167Z,95842.50
2022-10-15T20:51:33.120Z,95802.53
2022-10-15T20:54:01.407Z,95851.97
2022-10-15T20:56:29.569Z,95842.88
2022-10-15T20:58:59.008Z,95842.44
2022-10-15T21:01:26.892Z,95842.31
2022-10-15T21:03:54.804Z,95841.84
2022-10-15T21:06:22.855Z,95798.84
2022-10-15T21:08:50.774Z,95851.22
2022-10-15T21:11:18.662Z,95852.84
2022-10-15T21:13:46.549Z,95830.16
2022-10-15T21:16:15.868Z,95857.28
2022-10-15T21:18:43.826Z,95867.16
2022-10-15T21:21:13.600Z,95815.47
2022-10-15T21:23:42.988Z,95868.31
2022-10-15T21:26:13.381Z,95851.22
2022-10-15T21:28:41.782Z,95870.72
2022-10-15T21:31:11.327Z,95835.38
2022-10-15T21:33:41.338Z,95869.97
2022-10-15T21:36:14.216Z,95873.16
2022-10-15T21:38:42.893Z,95874.59
2022-10-15T21:41:10.877Z,95890.16
2022-10-15T21:43:38.829Z,95893.81
2022-10-15T21:46:09.101Z,95888.44
2022-10-15T21:48:37.587Z,95870.50
2022-10-15T21:51:10.487Z,95884.00
2022-10-15T21:53:38.350Z,95895.09
2022-10-15T21:56:08.085Z,95903.19
2022-10-15T21:58:37.970Z,95835.44
2022-10-15T22:01:10.263Z,95898.75
2022-10-15T22:03:38.677Z,95901.91
2022-10-15T22:06:09.446Z,95852.56
2022-10-15T22:08:38.754Z,95900.97
2022-10-15T22:11:12.653Z,95902.72
2022-10-15T22:13:41.422Z,95880.97
2022-10-15T22:16:10.749Z,95902.88
2022-10-15T22:18:39.064Z,95905.75
2022-10-15T22:21:15.768Z,95902.41
2022-10-15T22:23:44.687Z,95847.34
2022-10-15T22:26:13.389Z,95905.56
2022-10-15T22:28:42.572Z,95903.03
2022-10-15T22:31:13.847Z,95905.72
2022-10-15T22:33:41.828Z,95901.59
2022-10-15T22:36:16.647Z,95899.38
2022-10-15T22:38:46.720Z,95900.97
2022-10-15T22:41:18.076Z,95902.56
2022-10-15T22:43:45.941Z,95901.59
2022-10-15T22:46:14.288Z,95913.03
2022-10-15T22:48:49.501Z,95910.94
2022-10-15T22:51:18.828Z,95915.69
2022-10-15T22:53:46.701Z,95921.75
2022-10-15T22:56:16.942Z,95918.25
2022-10-15T22:58:46.761Z,95918.41
2022-10-15T23:01:16.344Z,95923.94
2022-10-15T23:03:46.401Z,95901.56
2022-10-15T23:06:15.386Z,95927.09
2022-10-15T23:08:45.293Z,95922.19
2022-10-15T23:11:15.592Z,95915.25
2022-10-15T23:13:44.711Z,95927.59
2022-10-15T23:16:15.076Z,95931.78
2022-10-15T23:18:47.697Z,95927.97
2022-10-15T23:21:20.102Z,95910.31
2022-10-15T23:23:50.453Z,95936.31
2022-10-15T23:26:23.703Z,95941.22
2022-10-15T23:28:53.837Z,95935.31
2022-10-15T23:31:25.718Z,95947.38
2022-10-15T23:34:05.002Z,95943.56
2022-10-15T23:36:38.684Z,95944.28
2022-10-15T23:39:16.258Z,95930.84
2022-10-15T23:41:46.402Z,95953.97
2022-10-15T23:44:14.969Z,95938.78
2022-10-15T23:46:43.423Z,95952.38
2022-10-15T23:51:57.875Z,95911.03
2022-10-15T23:54:27.228Z,95929.88
2022-10-15T23:56:55.130Z,95958.75
2022-10-15T23:59:25.900Z,95961.94
